Anco, Kentucky
Current Conditions -  °F | °C
As of 4:53 PM on Sunday 23 Nov 2014 (Local Time) from KJKL Reporting Station
Few Clouds Few Clouds  
Wind Chill: 54°   Ceiling: Unl
Heat Index: 54°   Visibility: 10mi
Dew Point: 50°   Wind: 7mph
Humidity: 86%   Direction: 130°SE
Pressure: 29.65"   Gusts: NA
Location:  37.2376°N, 83.0326°W
Report Text: KJKL 232153Z AUTO 13006KT 10SM FEW055 12/10 A2965 RMK AO2 RAE04 SLP034 P0000 T01220100
Loading
Personal Weather Stations






























Interactive Weather Map New forecast layout! Learn more

10-Day Weather Forecast

Advertisements
Track Severe Weather on mobile